TimeEST,TemperatureF,Dew PointF,Humidity,Sea Level PressureIn,VisibilityMPH,Wind Direction,Wind SpeedMPH,Gust SpeedMPH,PrecipitationIn,Events,Conditions,WindDirDegrees,DateUTC
12:54 AM,39.9,18.0,41,30.13,10.0,SW,6.9,-,N/A,,Partly Cloudy,230,2013-11-15 05:54:00
1:54 AM,39.9,17.1,40,30.14,10.0,SSW,3.5,-,N/A,,Partly Cloudy,200,2013-11-15 06:54:00
2:54 AM,37.9,17.1,43,30.15,10.0,SSW,8.1,-,N/A,,Clear,200,2013-11-15 07:54:00
3:54 AM,39.0,16.0,39,30.15,10.0,SSW,6.9,-,N/A,,Clear,210,2013-11-15 08:54:00
4:54 AM,39.0,17.1,41,30.17,10.0,SSW,9.2,-,N/A,,Partly Cloudy,200,2013-11-15 09:54:00
5:54 AM,41.0,14.0,33,30.18,10.0,WSW,11.5,-,N/A,,Partly Cloudy,240,2013-11-15 10:54:00
6:54 AM,39.9,15.1,36,30.19,10.0,SW,11.5,-,N/A,,Mostly Cloudy,220,2013-11-15 11:54:00
7:54 AM,43.0,15.1,32,30.20,10.0,SW,5.8,-,N/A,,Overcast,230,2013-11-15 12:54:00
8:54 AM,46.0,16.0,30,30.20,10.0,SW,6.9,-,N/A,,Overcast,230,2013-11-15 13:54:00
9:54 AM,50.0,18.0,28,30.20,10.0,SSW,5.8,-,N/A,,Overcast,200,2013-11-15 14:54:00
10:54 AM,53.1,19.9,27,30.19,10.0,South,6.9,-,N/A,,Overcast,190,2013-11-15 15:54:00
11:54 AM,57.9,16.0,19,30.16,10.0,SSW,11.5,-,N/A,,Overcast,210,2013-11-15 16:54:00
12:54 PM,60.1,17.1,19,30.14,10.0,SW,12.7,-,N/A,,Overcast,220,2013-11-15 17:54:00
1:54 PM,61.0,17.1,18,30.12,10.0,SSW,12.7,-,N/A,,Overcast,210,2013-11-15 18:54:00
2:54 PM,59.0,27.0,29,30.11,10.0,South,10.4,-,N/A,,Overcast,190,2013-11-15 19:54:00
3:54 PM,57.0,25.0,29,30.13,10.0,SSW,12.7,-,N/A,,Overcast,200,2013-11-15 20:54:00
4:54 PM,54.0,25.0,33,30.13,10.0,SSW,11.5,-,N/A,,Overcast,200,2013-11-15 21:54:00
5:54 PM,53.1,26.1,35,30.15,10.0,SW,10.4,-,N/A,,Overcast,220,2013-11-15 22:54:00
6:54 PM,51.1,30.9,46,30.16,10.0,SW,9.2,-,N/A,,Mostly Cloudy,220,2013-11-15 23:54:00
7:54 PM,48.9,30.9,50,30.17,10.0,SW,6.9,-,N/A,,Mostly Cloudy,220,2013-11-16 00:54:00
8:54 PM,46.9,32.0,56,30.18,10.0,SW,9.2,-,N/A,,Mostly Cloudy,220,2013-11-16 01:54:00
9:54 PM,46.9,32.0,56,30.18,10.0,SW,6.9,-,N/A,,Scattered Clouds,230,2013-11-16 02:54:00
10:54 PM,46.9,32.0,56,30.18,10.0,SW,6.9,-,N/A,,Overcast,230,2013-11-16 03:54:00
11:54 PM,46.0,33.1,61,30.19,10.0,SW,6.9,-,N/A,,Overcast,230,2013-11-16 04:54:00